Briefing drone pour Saint-aignan

Rechercher une autre localisation

Conditions de vol :


Nous sommes le : Mardi 30 novembre 2021
Il est 18:28 UTC (19:28 LT)

Lever de soleil : 06:53 UTC (07:53 LT)
Coucher de soleil : 16:32 UTC (17:32 LT)

Météo

L'essentiel des conditions de vol

VIGILANCE MÉTÉO FRANCE - Loir-et-Cher (41)
Pas de vigilances particulieres
METAR de LFYR
LFYR 301800Z AUTO 23007KT 190V260 9999 BKN020 BKN025 OVC038 07/04 Q1021

Date d'émission: 30/11/2021
Heure d'émission: 18:00 UTC
Vent: 230° (variable du 190° au 260°) pour 7 KT (13 km/h)
Visibilité horizontale: > 10 km
Plafond :
- Nuages morcelés à 2000ft (610m)
- Nuages morcelés à 2500ft (762m)
- Couvert à 3800ft (1158m)
Température: 7 °C
Point de rosée: 4 °C
Humidité: 81%
Pression (QNH): 1021 hPa
TAF de LFYR
AMD LFYR 301603Z 3016/0115 CNL

Conditions prévues :

Heure d'émission : Bulletin éffectué le 30 à 16:00 UTC
Prévision : Valide du 30 a 16:00 UTC au 01 a 15:00 UTC
Nuages : à 0ft (0 m)
WEBCAM POUR SAINT-AIGNAN

Réglementation

Voler en sécurité

CARTES AERONAUTIQUE 1/500.000
CARTES VAC (LFYR)
SUP AIP




Chargement des AIP...
NOTAM (SAINT-AIGNAN + Terrain à proximité / FIR )




Chargement des NOTAMS...
CONTACT PREFECTURE 41
Loir-et-Cher (41) : pref-bpas@loir-et-cher.gouv.fr


Avertissement : Les données mises à disposition sont indicatives. Oxygène Drone ne pourra être tenu responsable de dégâts causés aux biens et aux personnes.